sensor_id;sensor_type;location;lat;lon;timestamp;pressure;altitude;pressure_sealevel;temperature
53512;BMP280;39392;52.832;13.816;2024-02-21T00:00:32;101820.13;;;19.53
53512;BMP280;39392;52.832;13.816;2024-02-21T00:02:59;101812.97;;;19.52
53512;BMP280;39392;52.832;13.816;2024-02-21T00:05:28;101804.81;;;19.52
53512;BMP280;39392;52.832;13.816;2024-02-21T00:07:55;101798.38;;;19.53
53512;BMP280;39392;52.832;13.816;2024-02-21T00:10:21;101796.66;;;19.52
53512;BMP280;39392;52.832;13.816;2024-02-21T00:12:48;101789.38;;;19.52
53512;BMP280;39392;52.832;13.816;2024-02-21T00:15:14;101789.38;;;19.52
53512;BMP280;39392;52.832;13.816;2024-02-21T00:17:41;101786.47;;;19.54
53512;BMP280;39392;52.832;13.816;2024-02-21T00:20:07;101785.63;;;19.53
53512;BMP280;39392;52.832;13.816;2024-02-21T00:22:34;101791.22;;;19.52
53512;BMP280;39392;52.832;13.816;2024-02-21T00:25:01;101789.50;;;19.51
53512;BMP280;39392;52.832;13.816;2024-02-21T00:27:28;101791.22;;;19.52
53512;BMP280;39392;52.832;13.816;2024-02-21T00:29:54;101778.50;;;19.52
53512;BMP280;39392;52.832;13.816;2024-02-21T00:32:21;101771.19;;;19.53
53512;BMP280;39392;52.832;13.816;2024-02-21T00:34:47;101781.03;;;19.54
53512;BMP280;39392;52.832;13.816;2024-02-21T00:37:14;101780.88;;;19.55
53512;BMP280;39392;52.832;13.816;2024-02-21T00:39:40;101786.47;;;19.54
53512;BMP280;39392;52.832;13.816;2024-02-21T00:42:08;101775.59;;;19.54
53512;BMP280;39392;52.832;13.816;2024-02-21T00:44:35;101775.44;;;19.55
53512;BMP280;39392;52.832;13.816;2024-02-21T00:47:01;101770.72;;;19.57
53512;BMP280;39392;52.832;13.816;2024-02-21T00:49:28;101769.53;;;19.60
53512;BMP280;39392;52.832;13.816;2024-02-21T00:51:55;101773.00;;;19.62
53512;BMP280;39392;52.832;13.816;2024-02-21T00:54:21;101770.28;;;19.62
53512;BMP280;39392;52.832;13.816;2024-02-21T00:56:49;101761.97;;;19.63
53512;BMP280;39392;52.832;13.816;2024-02-21T00:59:15;101764.84;;;19.62
53512;BMP280;39392;52.832;13.816;2024-02-21T01:01:42;101765.69;;;19.62
53512;BMP280;39392;52.832;13.816;2024-02-21T01:04:09;101756.69;;;19.62
53512;BMP280;39392;52.832;13.816;2024-02-21T01:06:36;101757.97;;;19.58
53512;BMP280;39392;52.832;13.816;2024-02-21T01:09:03;101750.50;;;19.60
53512;BMP280;39392;52.832;13.816;2024-02-21T01:11:30;101745.06;;;19.60
53512;BMP280;39392;52.832;13.816;2024-02-21T01:13:56;101743.94;;;19.62
53512;BMP280;39392;52.832;13.816;2024-02-21T01:16:24;101738.34;;;19.64
53512;BMP280;39392;52.832;13.816;2024-02-21T01:18:50;101741.91;;;19.64
53512;BMP280;39392;52.832;13.816;2024-02-21T01:21:17;101742.91;;;19.63
53512;BMP280;39392;52.832;13.816;2024-02-21T01:23:44;101728.31;;;19.64
53512;BMP280;39392;52.832;13.816;2024-02-21T01:26:10;101725.59;;;19.64
53512;BMP280;39392;52.832;13.816;2024-02-21T01:28:40;101729.03;;;19.67
53512;BMP280;39392;52.832;13.816;2024-02-21T01:31:06;101723.59;;;19.67
53512;BMP280;39392;52.832;13.816;2024-02-21T01:33:33;101718.16;;;19.67
53512;BMP280;39392;52.832;13.816;2024-02-21T01:36:05;101721.53;;;19.69
53512;BMP280;39392;52.832;13.816;2024-02-21T01:38:33;101722.44;;;19.69
53512;BMP280;39392;52.832;13.816;2024-02-21T01:40:59;101719.84;;;19.68
53512;BMP280;39392;52.832;13.816;2024-02-21T01:43:26;101709.97;;;19.67
53512;BMP280;39392;52.832;13.816;2024-02-21T01:45:54;101712.53;;;19.68
53512;BMP280;39392;52.832;13.816;2024-02-21T01:48:24;101698.94;;;19.68
53512;BMP280;39392;52.832;13.816;2024-02-21T01:50:51;101699.97;;;19.67
53512;BMP280;39392;52.832;13.816;2024-02-21T01:53:19;101708.13;;;19.67
53512;BMP280;39392;52.832;13.816;2024-02-21T01:55:46;101707.25;;;19.67
53512;BMP280;39392;52.832;13.816;2024-02-21T01:58:13;101692.66;;;19.68
53512;BMP280;39392;52.832;13.816;2024-02-21T02:00:41;101694.50;;;19.67
53512;BMP280;39392;52.832;13.816;2024-02-21T02:03:10;101696.94;;;19.70
53512;BMP280;39392;52.832;13.816;2024-02-21T02:05:44;101683.34;;;19.70
53512;BMP280;39392;52.832;13.816;2024-02-21T02:08:10;101690.47;;;19.71
53512;BMP280;39392;52.832;13.816;2024-02-21T02:10:37;101680.44;;;19.72
53512;BMP280;39392;52.832;13.816;2024-02-21T02:13:04;101672.28;;;19.72
53512;BMP280;39392;52.832;13.816;2024-02-21T02:15:43;101675.84;;;19.72
53512;BMP280;39392;52.832;13.816;2024-02-21T02:18:10;101668.53;;;19.73
53512;BMP280;39392;52.832;13.816;2024-02-21T02:20:37;101671.44;;;19.71
53512;BMP280;39392;52.832;13.816;2024-02-21T02:23:06;101670.41;;;19.72
53512;BMP280;39392;52.832;13.816;2024-02-21T02:25:34;101665.81;;;19.73
53512;BMP280;39392;52.832;13.816;2024-02-21T02:28:00;101659.53;;;19.72
53512;BMP280;39392;52.832;13.816;2024-02-21T02:30:27;101660.38;;;19.73
53512;BMP280;39392;52.832;13.816;2024-02-21T02:32:53;101652.09;;;19.74
53512;BMP280;39392;52.832;13.816;2024-02-21T02:35:20;101653.78;;;19.75
53512;BMP280;39392;52.832;13.816;2024-02-21T02:37:50;101638.31;;;19.76
53512;BMP280;39392;52.832;13.816;2024-02-21T02:40:17;101641.03;;;19.76
53512;BMP280;39392;52.832;13.816;2024-02-21T02:42:44;101634.75;;;19.75
53512;BMP280;39392;52.832;13.816;2024-02-21T02:45:11;101632.03;;;19.75
53512;BMP280;39392;52.832;13.816;2024-02-21T02:47:39;101634.56;;;19.77
53512;BMP280;39392;52.832;13.816;2024-02-21T02:50:06;101636.44;;;19.76
53512;BMP280;39392;52.832;13.816;2024-02-21T02:52:33;101635.59;;;19.76
53512;BMP280;39392;52.832;13.816;2024-02-21T02:54:59;101628.44;;;19.75
53512;BMP280;39392;52.832;13.816;2024-02-21T02:57:28;101626.59;;;19.75
53512;BMP280;39392;52.832;13.816;2024-02-21T02:59:54;101629.13;;;19.77
53512;BMP280;39392;52.832;13.816;2024-02-21T03:02:21;101615.38;;;19.78
53512;BMP280;39392;52.832;13.816;2024-02-21T03:04:47;101619.97;;;19.78
53512;BMP280;39392;52.832;13.816;2024-02-21T03:07:14;101617.41;;;19.76
53512;BMP280;39392;52.832;13.816;2024-02-21T03:09:41;101626.41;;;19.77
53512;BMP280;39392;52.832;13.816;2024-02-21T03:12:09;101620.13;;;19.76
53512;BMP280;39392;52.832;13.816;2024-02-21T03:14:36;101602.94;;;19.76
53512;BMP280;39392;52.832;13.816;2024-02-21T03:17:02;101602.09;;;19.75
53512;BMP280;39392;52.832;13.816;2024-02-21T03:19:29;101608.25;;;19.77
53512;BMP280;39392;52.832;13.816;2024-02-21T03:21:56;101602.81;;;19.77
53512;BMP280;39392;52.832;13.816;2024-02-21T03:24:23;101594.66;;;19.77
53512;BMP280;39392;52.832;13.816;2024-02-21T03:26:49;101592.78;;;19.78
53512;BMP280;39392;52.832;13.816;2024-02-21T03:29:16;101595.50;;;19.78
53512;BMP280;39392;52.832;13.816;2024-02-21T03:31:43;101592.78;;;19.78
53512;BMP280;39392;52.832;13.816;2024-02-21T03:34:10;101583.78;;;19.77
53512;BMP280;39392;52.832;13.816;2024-02-21T03:36:37;101588.03;;;19.80
53512;BMP280;39392;52.832;13.816;2024-02-21T03:39:04;101591.75;;;19.79
53512;BMP280;39392;52.832;13.816;2024-02-21T03:41:30;101582.75;;;19.78
53512;BMP280;39392;52.832;13.816;2024-02-21T03:43:57;101579.19;;;19.78
53512;BMP280;39392;52.832;13.816;2024-02-21T03:46:24;101581.91;;;19.78
53512;BMP280;39392;52.832;13.816;2024-02-21T03:48:50;101578.16;;;19.79
53512;BMP280;39392;52.832;13.816;2024-02-21T03:51:17;101565.59;;;19.78
53512;BMP280;39392;52.832;13.816;2024-02-21T03:53:43;101564.72;;;19.77
53512;BMP280;39392;52.832;13.816;2024-02-21T03:56:10;101561.84;;;19.79
53512;BMP280;39392;52.832;13.816;2024-02-21T03:58:36;101546.38;;;19.79
53512;BMP280;39392;52.832;13.816;2024-02-21T04:01:03;101545.34;;;19.80
53512;BMP280;39392;52.832;13.816;2024-02-21T04:03:32;101546.91;;;19.83
53512;BMP280;39392;52.832;13.816;2024-02-21T04:05:59;101558.63;;;19.83
53512;BMP280;39392;52.832;13.816;2024-02-21T04:08:26;101552.34;;;19.83
53512;BMP280;39392;52.832;13.816;2024-02-21T04:10:53;101552.16;;;19.84
53512;BMP280;39392;52.832;13.816;2024-02-21T04:13:19;101542.13;;;19.85
53512;BMP280;39392;52.832;13.816;2024-02-21T04:15:46;101541.28;;;19.84
53512;BMP280;39392;52.832;13.816;2024-02-21T04:18:13;101540.25;;;19.85
53512;BMP280;39392;52.832;13.816;2024-02-21T04:20:41;101532.97;;;19.86
53512;BMP280;39392;52.832;13.816;2024-02-21T04:23:07;101527.69;;;19.84
53512;BMP280;39392;52.832;13.816;2024-02-21T04:25:34;101523.09;;;19.85
53512;BMP280;39392;52.832;13.816;2024-02-21T04:28:00;101511.38;;;19.84
53512;BMP280;39392;52.832;13.816;2024-02-21T04:30:27;101512.38;;;19.83
53512;BMP280;39392;52.832;13.816;2024-02-21T04:32:53;101500.34;;;19.86
53512;BMP280;39392;52.832;13.816;2024-02-21T04:35:20;101501.19;;;19.86
53512;BMP280;39392;52.832;13.816;2024-02-21T04:37:47;101498.47;;;19.86
53512;BMP280;39392;52.832;13.816;2024-02-21T04:40:13;101497.63;;;19.86
53512;BMP280;39392;52.832;13.816;2024-02-21T04:42:41;101495.75;;;19.86
53512;BMP280;39392;52.832;13.816;2024-02-21T04:45:07;101496.75;;;19.85
53512;BMP280;39392;52.832;13.816;2024-02-21T04:47:34;101483.31;;;19.84
53512;BMP280;39392;52.832;13.816;2024-02-21T04:50:01;101487.06;;;19.83
53512;BMP280;39392;52.832;13.816;2024-02-21T04:52:27;101476.84;;;19.85
53512;BMP280;39392;52.832;13.816;2024-02-21T04:54:54;101473.13;;;19.86
53512;BMP280;39392;52.832;13.816;2024-02-21T04:57:20;101474.84;;;19.87
53512;BMP280;39392;52.832;13.816;2024-02-21T04:59:47;101477.38;;;19.88
53512;BMP280;39392;52.832;13.816;2024-02-21T05:02:14;101478.22;;;19.89
53512;BMP280;39392;52.832;13.816;2024-02-21T05:04:42;101479.25;;;19.88
53512;BMP280;39392;52.832;13.816;2024-02-21T05:07:08;101478.22;;;19.89
53512;BMP280;39392;52.832;13.816;2024-02-21T05:09:37;101476.34;;;19.89
53512;BMP280;39392;52.832;13.816;2024-02-21T05:12:03;101471.78;;;19.90
53512;BMP280;39392;52.832;13.816;2024-02-21T05:14:30;101479.06;;;19.89
53512;BMP280;39392;52.832;13.816;2024-02-21T05:16:56;101487.22;;;19.89
53512;BMP280;39392;52.832;13.816;2024-02-21T05:19:23;101489.97;;;19.89
53512;BMP280;39392;52.832;13.816;2024-02-21T05:21:50;101476.53;;;19.88
53512;BMP280;39392;52.832;13.816;2024-02-21T05:24:16;101469.06;;;19.90
53512;BMP280;39392;52.832;13.816;2024-02-21T05:26:43;101458.34;;;19.88
53512;BMP280;39392;52.832;13.816;2024-02-21T05:29:09;101437.78;;;19.86
53512;BMP280;39392;52.832;13.816;2024-02-21T05:32:10;101438.78;;;19.85
53512;BMP280;39392;52.832;13.816;2024-02-21T05:34:29;101450.50;;;19.85
53512;BMP280;39392;52.832;13.816;2024-02-21T05:36:56;101447.63;;;19.87
53512;BMP280;39392;52.832;13.816;2024-02-21T05:39:24;101441.16;;;19.88
53512;BMP280;39392;52.832;13.816;2024-02-21T05:41:50;101432.81;;;19.89
53512;BMP280;39392;52.832;13.816;2024-02-21T05:44:17;101442.72;;;19.90
53512;BMP280;39392;52.832;13.816;2024-02-21T05:46:44;101441.69;;;19.92
53512;BMP280;39392;52.832;13.816;2024-02-21T05:49:13;101439.16;;;19.90
53512;BMP280;39392;52.832;13.816;2024-02-21T05:51:40;101433.72;;;19.90
53512;BMP280;39392;52.832;13.816;2024-02-21T05:54:07;101438.28;;;19.89
53512;BMP280;39392;52.832;13.816;2024-02-21T05:56:33;101443.72;;;19.89
53512;BMP280;39392;52.832;13.816;2024-02-21T05:59:00;101440.16;;;19.89
53512;BMP280;39392;52.832;13.816;2024-02-21T06:01:27;101446.44;;;19.89
53512;BMP280;39392;52.832;13.816;2024-02-21T06:03:54;101443.72;;;19.89
53512;BMP280;39392;52.832;13.816;2024-02-21T06:06:21;101449.84;;;19.92
53512;BMP280;39392;52.832;13.816;2024-02-21T06:08:51;101442.72;;;19.90
53512;BMP280;39392;52.832;13.816;2024-02-21T06:11:18;101447.31;;;19.90
53512;BMP280;39392;52.832;13.816;2024-02-21T06:13:44;101446.44;;;19.89
53512;BMP280;39392;52.832;13.816;2024-02-21T06:16:11;101438.28;;;19.89
53512;BMP280;39392;52.832;13.816;2024-02-21T06:18:38;101440.31;;;19.87
53512;BMP280;39392;52.832;13.816;2024-02-21T06:21:04;101433.00;;;19.88
53512;BMP280;39392;52.832;13.816;2024-02-21T06:23:31;101446.44;;;19.89
53512;BMP280;39392;52.832;13.816;2024-02-21T06:25:58;101441.69;;;19.92
53512;BMP280;39392;52.832;13.816;2024-02-21T06:28:24;101441.69;;;19.92
53512;BMP280;39392;52.832;13.816;2024-02-21T06:30:51;101437.09;;;19.92
53512;BMP280;39392;52.832;13.816;2024-02-21T06:33:18;101440.84;;;19.91
53512;BMP280;39392;52.832;13.816;2024-02-21T06:35:44;101451.88;;;19.89
53512;BMP280;39392;52.832;13.816;2024-02-21T06:38:13;101460.72;;;19.92
53512;BMP280;39392;52.832;13.816;2024-02-21T06:40:42;101455.28;;;19.92
53512;BMP280;39392;52.832;13.816;2024-02-21T06:43:08;101451.53;;;19.93
53512;BMP280;39392;52.832;13.816;2024-02-21T06:45:35;101447.81;;;19.94
53512;BMP280;39392;52.832;13.816;2024-02-21T06:48:01;101448.69;;;19.94
53512;BMP280;39392;52.832;13.816;2024-02-21T06:50:28;101454.97;;;19.95
53512;BMP280;39392;52.832;13.816;2024-02-21T06:52:55;101453.09;;;19.95
53512;BMP280;39392;52.832;13.816;2024-02-21T06:55:21;101445.97;;;19.94
53512;BMP280;39392;52.832;13.816;2024-02-21T06:57:48;101449.53;;;19.95
53512;BMP280;39392;52.832;13.816;2024-02-21T07:00:15;101456.66;;;19.96
53512;BMP280;39392;52.832;13.816;2024-02-21T07:02:42;101449.34;;;19.96
53512;BMP280;39392;52.832;13.816;2024-02-21T07:05:08;101452.06;;;19.96
53512;BMP280;39392;52.832;13.816;2024-02-21T07:07:35;101446.47;;;19.98
53512;BMP280;39392;52.832;13.816;2024-02-21T07:10:02;101439.31;;;19.97
53512;BMP280;39392;52.832;13.816;2024-02-21T07:12:28;101445.09;;;19.94
53512;BMP280;39392;52.832;13.816;2024-02-21T07:14:55;101443.06;;;19.96
53512;BMP280;39392;52.832;13.816;2024-02-21T07:17:21;101438.66;;;19.95
53512;BMP280;39392;52.832;13.816;2024-02-21T07:19:48;101436.78;;;19.95
53512;BMP280;39392;52.832;13.816;2024-02-21T07:22:14;101442.22;;;19.95
53512;BMP280;39392;52.832;13.816;2024-02-21T07:24:41;101442.03;;;19.97
53512;BMP280;39392;52.832;13.816;2024-02-21T07:27:07;101433.03;;;19.96
53512;BMP280;39392;52.832;13.816;2024-02-21T07:29:34;101434.19;;;19.94
53512;BMP280;39392;52.832;13.816;2024-02-21T07:32:00;101433.22;;;19.95
53512;BMP280;39392;52.832;13.816;2024-02-21T07:34:27;101426.91;;;19.94
53512;BMP280;39392;52.832;13.816;2024-02-21T07:36:55;101435.09;;;19.94
53512;BMP280;39392;52.832;13.816;2024-02-21T07:39:22;101432.38;;;19.94
53512;BMP280;39392;52.832;13.816;2024-02-21T07:41:48;101435.75;;;19.96
53512;BMP280;39392;52.832;13.816;2024-02-21T07:44:15;101428.44;;;19.97
53512;BMP280;39392;52.832;13.816;2024-02-21T07:46:42;101423.84;;;19.97
53512;BMP280;39392;52.832;13.816;2024-02-21T07:49:08;101427.94;;;20.01
53512;BMP280;39392;52.832;13.816;2024-02-21T07:51:35;101418.78;;;20.02
53512;BMP280;39392;52.832;13.816;2024-02-21T07:54:02;101424.38;;;20.01
53512;BMP280;39392;52.832;13.816;2024-02-21T07:56:30;101423.19;;;20.03
53512;BMP280;39392;52.832;13.816;2024-02-21T07:58:57;101421.66;;;20.01
53512;BMP280;39392;52.832;13.816;2024-02-21T08:01:24;101422.50;;;20.01
53512;BMP280;39392;52.832;13.816;2024-02-21T08:03:50;101422.34;;;20.03
53512;BMP280;39392;52.832;13.816;2024-02-21T08:06:17;101425.22;;;20.01
53512;BMP280;39392;52.832;13.816;2024-02-21T08:08:44;101414.31;;;20.01
53512;BMP280;39392;52.832;13.816;2024-02-21T08:11:10;101414.69;;;19.98
53512;BMP280;39392;52.832;13.816;2024-02-21T08:13:37;101416.53;;;19.98
53512;BMP280;39392;52.832;13.816;2024-02-21T08:16:03;101418.56;;;19.96
53512;BMP280;39392;52.832;13.816;2024-02-21T08:18:30;101419.59;;;19.95
53512;BMP280;39392;52.832;13.816;2024-02-21T08:20:57;101409.56;;;19.95
53512;BMP280;39392;52.832;13.816;2024-02-21T08:23:23;101415.00;;;19.95
53512;BMP280;39392;52.832;13.816;2024-02-21T08:25:50;101419.44;;;19.96
53512;BMP280;39392;52.832;13.816;2024-02-21T08:28:17;101399.53;;;19.96
53512;BMP280;39392;52.832;13.816;2024-02-21T08:30:44;101410.41;;;19.96
53512;BMP280;39392;52.832;13.816;2024-02-21T08:33:16;101418.56;;;19.96
53512;BMP280;39392;52.832;13.816;2024-02-21T08:35:43;101404.28;;;19.94
53512;BMP280;39392;52.832;13.816;2024-02-21T08:38:10;101409.72;;;19.94
53512;BMP280;39392;52.832;13.816;2024-02-21T08:40:37;101409.72;;;19.94
53512;BMP280;39392;52.832;13.816;2024-02-21T08:43:03;101411.59;;;19.93
53512;BMP280;39392;52.832;13.816;2024-02-21T08:45:30;101416.19;;;19.93
53512;BMP280;39392;52.832;13.816;2024-02-21T08:47:56;101408.88;;;19.93
53512;BMP280;39392;52.832;13.816;2024-02-21T08:50:23;101406.31;;;19.92
53512;BMP280;39392;52.832;13.816;2024-02-21T08:52:54;101414.81;;;19.88
53512;BMP280;39392;52.832;13.816;2024-02-21T08:55:21;101409.38;;;19.88
53512;BMP280;39392;52.832;13.816;2024-02-21T08:57:48;101404.09;;;19.87
53512;BMP280;39392;52.832;13.816;2024-02-21T09:00:15;101404.09;;;19.87
53512;BMP280;39392;52.832;13.816;2024-02-21T09:02:41;101400.34;;;19.88
53512;BMP280;39392;52.832;13.816;2024-02-21T09:05:11;101395.94;;;19.87
53512;BMP280;39392;52.832;13.816;2024-02-21T09:07:38;101400.53;;;19.86
53512;BMP280;39392;52.832;13.816;2024-02-21T09:10:05;101403.41;;;19.85
53512;BMP280;39392;52.832;13.816;2024-02-21T09:12:31;101392.00;;;19.81
53512;BMP280;39392;52.832;13.816;2024-02-21T09:14:58;101395.41;;;19.83
53512;BMP280;39392;52.832;13.816;2024-02-21T09:17:25;101397.97;;;19.85
53512;BMP280;39392;52.832;13.816;2024-02-21T09:19:52;101402.56;;;19.84
53512;BMP280;39392;52.832;13.816;2024-02-21T09:22:21;101404.25;;;19.85
53512;BMP280;39392;52.832;13.816;2024-02-21T09:24:47;101399.84;;;19.84
53512;BMP280;39392;52.832;13.816;2024-02-21T09:27:14;101396.97;;;19.86
53512;BMP280;39392;52.832;13.816;2024-02-21T09:29:41;101391.53;;;19.86
53512;BMP280;39392;52.832;13.816;2024-02-21T09:32:07;101391.69;;;19.84
53512;BMP280;39392;52.832;13.816;2024-02-21T09:34:34;101395.25;;;19.85
53512;BMP280;39392;52.832;13.816;2024-02-21T09:37:01;101390.66;;;19.85
53512;BMP280;39392;52.832;13.816;2024-02-21T09:39:27;101377.94;;;19.86
53512;BMP280;39392;52.832;13.816;2024-02-21T09:41:56;101384.38;;;19.85
53512;BMP280;39392;52.832;13.816;2024-02-21T09:44:25;101378.25;;;19.83
53512;BMP280;39392;52.832;13.816;2024-02-21T09:47:40;101378.41;;;19.81
53512;BMP280;39392;52.832;13.816;2024-02-21T09:49:43;101376.19;;;19.77
53512;BMP280;39392;52.832;13.816;2024-02-21T09:52:10;101369.75;;;19.78
53512;BMP280;39392;52.832;13.816;2024-02-21T09:54:40;101367.53;;;19.81
53512;BMP280;39392;52.832;13.816;2024-02-21T09:57:07;101370.25;;;19.81
53512;BMP280;39392;52.832;13.816;2024-02-21T09:59:34;101375.69;;;19.81
53512;BMP280;39392;52.832;13.816;2024-02-21T10:02:00;101370.41;;;19.80
53512;BMP280;39392;52.832;13.816;2024-02-21T10:04:28;101375.00;;;19.79
53512;BMP280;39392;52.832;13.816;2024-02-21T10:06:55;101371.25;;;19.80
53512;BMP280;39392;52.832;13.816;2024-02-21T10:09:23;101364.78;;;19.81
53512;BMP280;39392;52.832;13.816;2024-02-21T10:11:50;101371.25;;;19.80
53512;BMP280;39392;52.832;13.816;2024-02-21T10:14:17;101366.66;;;19.81
53512;BMP280;39392;52.832;13.816;2024-02-21T10:16:46;101374.84;;;19.81
53512;BMP280;39392;52.832;13.816;2024-02-21T10:19:19;101369.38;;;19.81
53512;BMP280;39392;52.832;13.816;2024-02-21T10:24:28;101373.97;;;19.80
53512;BMP280;39392;52.832;13.816;2024-02-21T10:27:04;101367.53;;;19.81
53512;BMP280;39392;52.832;13.816;2024-02-21T10:29:34;101359.34;;;19.81
53512;BMP280;39392;52.832;13.816;2024-02-21T10:32:11;101354.81;;;19.82
53512;BMP280;39392;52.832;13.816;2024-02-21T10:34:39;101373.84;;;19.82
53512;BMP280;39392;52.832;13.816;2024-02-21T10:37:06;101359.34;;;19.81
53512;BMP280;39392;52.832;13.816;2024-02-21T10:39:33;101364.47;;;19.84
53512;BMP280;39392;52.832;13.816;2024-02-21T10:42:03;101353.91;;;19.81
53512;BMP280;39392;52.832;13.816;2024-02-21T10:44:31;101355.78;;;19.81
53512;BMP280;39392;52.832;13.816;2024-02-21T10:46:57;101345.75;;;19.81
53512;BMP280;39392;52.832;13.816;2024-02-21T10:49:25;101343.91;;;19.82
53512;BMP280;39392;52.832;13.816;2024-02-21T10:51:54;101348.34;;;19.83
53512;BMP280;39392;52.832;13.816;2024-02-21T10:54:30;101349.50;;;19.80
53512;BMP280;39392;52.832;13.816;2024-02-21T10:57:01;101337.59;;;19.81
53512;BMP280;39392;52.832;13.816;2024-02-21T10:59:29;101338.47;;;19.82
53512;BMP280;39392;52.832;13.816;2024-02-21T11:01:58;101327.59;;;19.82
53512;BMP280;39392;52.832;13.816;2024-02-21T11:04:25;101329.44;;;19.81
53512;BMP280;39392;52.832;13.816;2024-02-21T11:06:52;101342.88;;;19.83
53512;BMP280;39392;52.832;13.816;2024-02-21T11:09:28;101330.13;;;19.83
53512;BMP280;39392;52.832;13.816;2024-02-21T11:11:55;101328.25;;;19.84
53512;BMP280;39392;52.832;13.816;2024-02-21T11:14:22;101341.88;;;19.84
53512;BMP280;39392;52.832;13.816;2024-02-21T11:16:48;101326.56;;;19.83
53512;BMP280;39392;52.832;13.816;2024-02-21T11:21:44;101319.44;;;19.82
53512;BMP280;39392;52.832;13.816;2024-02-21T11:24:11;101328.09;;;19.85
53512;BMP280;39392;52.832;13.816;2024-02-21T11:26:37;101318.09;;;19.86
53512;BMP280;39392;52.832;13.816;2024-02-21T11:29:04;101309.94;;;19.86
53512;BMP280;39392;52.832;13.816;2024-02-21T11:31:42;101315.38;;;19.86
53512;BMP280;39392;52.832;13.816;2024-02-21T11:34:12;101309.03;;;19.85
53512;BMP280;39392;52.832;13.816;2024-02-21T11:36:48;101300.03;;;19.85
53512;BMP280;39392;52.832;13.816;2024-02-21T11:39:18;101296.47;;;19.84
53512;BMP280;39392;52.832;13.816;2024-02-21T11:41:45;101299.19;;;19.84
53512;BMP280;39392;52.832;13.816;2024-02-21T11:44:11;101297.50;;;19.83
53512;BMP280;39392;52.832;13.816;2024-02-21T11:46:38;101304.13;;;19.81
53512;BMP280;39392;52.832;13.816;2024-02-21T11:49:05;101294.97;;;19.82
53512;BMP280;39392;52.832;13.816;2024-02-21T11:51:32;101302.75;;;19.85
53512;BMP280;39392;52.832;13.816;2024-02-21T11:54:00;101290.19;;;19.84
53512;BMP280;39392;52.832;13.816;2024-02-21T11:56:28;101293.75;;;19.84
53512;BMP280;39392;52.832;13.816;2024-02-21T11:58:54;101294.59;;;19.85
53512;BMP280;39392;52.832;13.816;2024-02-21T12:01:21;101279.13;;;19.85
53512;BMP280;39392;52.832;13.816;2024-02-21T12:03:47;101275.41;;;19.86
53512;BMP280;39392;52.832;13.816;2024-02-21T12:06:16;101272.00;;;19.84
53512;BMP280;39392;52.832;13.816;2024-02-21T12:08:46;101265.69;;;19.84
53512;BMP280;39392;52.832;13.816;2024-02-21T12:11:17;101265.38;;;19.87
53512;BMP280;39392;52.832;13.816;2024-02-21T12:13:44;101272.69;;;19.86
53512;BMP280;39392;52.832;13.816;2024-02-21T12:16:12;101264.34;;;19.88
53512;BMP280;39392;52.832;13.816;2024-02-21T12:18:40;101261.63;;;19.88
53512;BMP280;39392;52.832;13.816;2024-02-21T12:21:07;101266.03;;;19.89
53512;BMP280;39392;52.832;13.816;2024-02-21T12:23:34;101244.47;;;19.87
53512;BMP280;39392;52.832;13.816;2024-02-21T12:26:01;101249.06;;;19.87
53512;BMP280;39392;52.832;13.816;2024-02-21T12:28:27;101245.31;;;19.88
53512;BMP280;39392;52.832;13.816;2024-02-21T12:30:54;101250.75;;;19.88
53512;BMP280;39392;52.832;13.816;2024-02-21T12:33:21;101246.84;;;19.90
53512;BMP280;39392;52.832;13.816;2024-02-21T12:35:47;101243.94;;;19.92
53512;BMP280;39392;52.832;13.816;2024-02-21T12:38:15;101234.94;;;19.92
53512;BMP280;39392;52.832;13.816;2024-02-21T12:40:44;101231.88;;;19.95
53512;BMP280;39392;52.832;13.816;2024-02-21T12:43:10;101224.56;;;19.95
53512;BMP280;39392;52.832;13.816;2024-02-21T12:45:37;101217.91;;;19.98
53512;BMP280;39392;52.832;13.816;2024-02-21T12:48:03;101215.19;;;19.98
53512;BMP280;39392;52.832;13.816;2024-02-21T12:50:30;101214.19;;;19.99
53512;BMP280;39392;52.832;13.816;2024-02-21T12:52:57;101223.03;;;20.01
53512;BMP280;39392;52.832;13.816;2024-02-21T12:55:24;101205.00;;;20.00
53512;BMP280;39392;52.832;13.816;2024-02-21T12:57:51;101213.16;;;20.00
53512;BMP280;39392;52.832;13.816;2024-02-21T13:00:17;101211.28;;;20.00
53512;BMP280;39392;52.832;13.816;2024-02-21T13:02:44;101204.16;;;19.99
53512;BMP280;39392;52.832;13.816;2024-02-21T13:05:12;101203.31;;;19.99
53512;BMP280;39392;52.832;13.816;2024-02-21T13:07:39;101204.31;;;19.98
53512;BMP280;39392;52.832;13.816;2024-02-21T13:10:06;101198.88;;;19.98
53512;BMP280;39392;52.832;13.816;2024-02-21T13:12:32;101197.03;;;19.98
53512;BMP280;39392;52.832;13.816;2024-02-21T13:14:59;101194.13;;;20.00
53512;BMP280;39392;52.832;13.816;2024-02-21T13:17:25;101193.09;;;20.01
53512;BMP280;39392;52.832;13.816;2024-02-21T13:19:57;101189.53;;;20.00
53512;BMP280;39392;52.832;13.816;2024-02-21T13:22:23;101188.50;;;20.01
53512;BMP280;39392;52.832;13.816;2024-02-21T13:24:52;101184.09;;;20.00
53512;BMP280;39392;52.832;13.816;2024-02-21T13:27:23;101174.91;;;20.01
53512;BMP280;39392;52.832;13.816;2024-02-21T13:29:50;101176.78;;;20.01
53512;BMP280;39392;52.832;13.816;2024-02-21T13:32:16;101179.34;;;20.02
53512;BMP280;39392;52.832;13.816;2024-02-21T13:34:43;101180.34;;;20.01
53512;BMP280;39392;52.832;13.816;2024-02-21T13:37:09;101172.38;;;20.00
53512;BMP280;39392;52.832;13.816;2024-02-21T13:39:36;101163.16;;;20.01
53512;BMP280;39392;52.832;13.816;2024-02-21T13:42:03;101155.84;;;20.01
53512;BMP280;39392;52.832;13.816;2024-02-21T13:44:31;101153.13;;;20.01
53512;BMP280;39392;52.832;13.816;2024-02-21T13:46:58;101148.53;;;20.02
53512;BMP280;39392;52.832;13.816;2024-02-21T13:49:25;101150.41;;;20.01